Axel, Colorado
Current Conditions -  °F | °C
As of 8:53 PM on Wednesday 17 Dec 2014 (Local Time) from KEEO Reporting Station
Haze Haze  
Wind Chill: 26°   Ceiling: 300
Heat Index: 26°   Visibility: 6mi
Dew Point: 25°   Wind: 0mph
Humidity: 96%   Direction: NA
Pressure: 30.02"   Gusts: NA
Location:  40.0347°N, 107.628°W
Report Text: KEEO 180353Z AUTO 00000KT 6SM BR OVC003 M03/M04 A3002 RMK AO2 SLP182 I1000 T10331039
Loading
Personal Weather Stations






























Interactive Weather Map New forecast layout! Learn more

10-Day Weather Forecast

Advertisements
Track Severe Weather on mobile